sensor_id;sensor_type;location;lat;lon;timestamp;P1;durP1;ratioP1;P2;durP2;ratioP2
25615;SDS011;13482;48.234;13.006;2023-10-09T00:01:51;5.53;;;2.80;;
25615;SDS011;13482;48.234;13.006;2023-10-09T00:04:21;6.45;;;2.70;;
25615;SDS011;13482;48.234;13.006;2023-10-09T00:06:50;5.63;;;2.95;;
25615;SDS011;13482;48.234;13.006;2023-10-09T00:09:17;4.68;;;2.90;;
25615;SDS011;13482;48.234;13.006;2023-10-09T00:11:57;6.10;;;3.30;;
25615;SDS011;13482;48.234;13.006;2023-10-09T00:14:28;5.03;;;2.85;;
25615;SDS011;13482;48.234;13.006;2023-10-09T00:17:00;5.53;;;2.90;;
25615;SDS011;13482;48.234;13.006;2023-10-09T00:19:48;7.32;;;3.20;;
25615;SDS011;13482;48.234;13.006;2023-10-09T00:22:26;6.35;;;2.80;;
25615;SDS011;13482;48.234;13.006;2023-10-09T00:24:57;4.65;;;2.45;;
25615;SDS011;13482;48.234;13.006;2023-10-09T00:27:38;4.22;;;2.13;;
25615;SDS011;13482;48.234;13.006;2023-10-09T00:30:13;4.18;;;2.60;;
25615;SDS011;13482;48.234;13.006;2023-10-09T00:32:46;4.18;;;2.20;;
25615;SDS011;13482;48.234;13.006;2023-10-09T00:35:28;4.18;;;2.28;;
25615;SDS011;13482;48.234;13.006;2023-10-09T00:38:21;4.63;;;2.05;;
25615;SDS011;13482;48.234;13.006;2023-10-09T00:40:49;4.45;;;1.98;;
25615;SDS011;13482;48.234;13.006;2023-10-09T00:43:37;4.40;;;2.20;;
25615;SDS011;13482;48.234;13.006;2023-10-09T00:46:09;5.68;;;2.40;;
25615;SDS011;13482;48.234;13.006;2023-10-09T00:48:47;4.95;;;2.95;;
25615;SDS011;13482;48.234;13.006;2023-10-09T00:51:16;4.30;;;2.53;;
25615;SDS011;13482;48.234;13.006;2023-10-09T00:53:47;4.07;;;2.25;;
25615;SDS011;13482;48.234;13.006;2023-10-09T00:56:25;5.03;;;2.65;;
25615;SDS011;13482;48.234;13.006;2023-10-09T00:58:58;4.65;;;2.72;;
25615;SDS011;13482;48.234;13.006;2023-10-09T01:01:36;3.90;;;2.40;;
25615;SDS011;13482;48.234;13.006;2023-10-09T01:04:07;4.13;;;2.20;;
25615;SDS011;13482;48.234;13.006;2023-10-09T01:06:40;4.07;;;2.50;;
25615;SDS011;13482;48.234;13.006;2023-10-09T01:09:11;6.20;;;2.28;;
25615;SDS011;13482;48.234;13.006;2023-10-09T01:11:41;4.13;;;2.40;;
25615;SDS011;13482;48.234;13.006;2023-10-09T01:14:15;4.00;;;2.47;;
25615;SDS011;13482;48.234;13.006;2023-10-09T01:16:43;4.20;;;2.70;;
25615;SDS011;13482;48.234;13.006;2023-10-09T01:19:10;5.50;;;2.80;;
25615;SDS011;13482;48.234;13.006;2023-10-09T01:21:47;5.28;;;2.50;;
25615;SDS011;13482;48.234;13.006;2023-10-09T01:24:14;5.95;;;2.70;;
25615;SDS011;13482;48.234;13.006;2023-10-09T01:26:43;4.80;;;2.70;;
25615;SDS011;13482;48.234;13.006;2023-10-09T01:29:14;3.28;;;2.13;;
25615;SDS011;13482;48.234;13.006;2023-10-09T01:31:51;3.90;;;2.30;;
25615;SDS011;13482;48.234;13.006;2023-10-09T01:37:14;3.72;;;2.17;;
25615;SDS011;13482;48.234;13.006;2023-10-09T01:39:47;4.18;;;2.55;;
25615;SDS011;13482;48.234;13.006;2023-10-09T01:42:17;5.57;;;2.42;;
25615;SDS011;13482;48.234;13.006;2023-10-09T01:45:10;5.35;;;2.65;;
25615;SDS011;13482;48.234;13.006;2023-10-09T01:47:41;4.88;;;2.42;;
25615;SDS011;13482;48.234;13.006;2023-10-09T01:50:18;4.88;;;1.90;;
25615;SDS011;13482;48.234;13.006;2023-10-09T01:52:49;3.35;;;1.65;;
25615;SDS011;13482;48.234;13.006;2023-10-09T01:55:18;4.18;;;2.25;;
25615;SDS011;13482;48.234;13.006;2023-10-09T01:58:00;6.28;;;2.50;;
25615;SDS011;13482;48.234;13.006;2023-10-09T02:00:57;3.63;;;2.17;;
25615;SDS011;13482;48.234;13.006;2023-10-09T02:03:28;4.60;;;2.30;;
25615;SDS011;13482;48.234;13.006;2023-10-09T02:05:57;4.88;;;2.50;;
25615;SDS011;13482;48.234;13.006;2023-10-09T02:08:30;3.67;;;1.98;;
25615;SDS011;13482;48.234;13.006;2023-10-09T02:11:02;4.93;;;2.20;;
25615;SDS011;13482;48.234;13.006;2023-10-09T02:13:29;4.50;;;2.42;;
25615;SDS011;13482;48.234;13.006;2023-10-09T02:16:01;4.35;;;2.22;;
25615;SDS011;13482;48.234;13.006;2023-10-09T02:18:41;4.18;;;2.38;;
25615;SDS011;13482;48.234;13.006;2023-10-09T02:21:25;4.93;;;2.40;;
25615;SDS011;13482;48.234;13.006;2023-10-09T02:24:01;3.13;;;1.75;;
25615;SDS011;13482;48.234;13.006;2023-10-09T02:26:49;5.60;;;1.95;;
25615;SDS011;13482;48.234;13.006;2023-10-09T02:29:20;2.90;;;1.70;;
25615;SDS011;13482;48.234;13.006;2023-10-09T02:31:50;3.20;;;1.75;;
25615;SDS011;13482;48.234;13.006;2023-10-09T02:34:27;2.53;;;1.50;;
25615;SDS011;13482;48.234;13.006;2023-10-09T02:36:56;3.03;;;1.90;;
25615;SDS011;13482;48.234;13.006;2023-10-09T02:39:32;3.90;;;1.95;;
25615;SDS011;13482;48.234;13.006;2023-10-09T02:42:03;4.00;;;2.38;;
25615;SDS011;13482;48.234;13.006;2023-10-09T02:44:46;3.80;;;2.13;;
25615;SDS011;13482;48.234;13.006;2023-10-09T02:47:17;3.78;;;2.25;;
25615;SDS011;13482;48.234;13.006;2023-10-09T02:49:51;4.95;;;2.33;;
25615;SDS011;13482;48.234;13.006;2023-10-09T02:52:23;4.50;;;2.28;;
25615;SDS011;13482;48.234;13.006;2023-10-09T02:54:51;5.05;;;2.15;;
25615;SDS011;13482;48.234;13.006;2023-10-09T02:57:40;4.80;;;2.42;;
25615;SDS011;13482;48.234;13.006;2023-10-09T03:00:10;3.95;;;2.35;;
25615;SDS011;13482;48.234;13.006;2023-10-09T03:02:46;2.67;;;1.77;;
25615;SDS011;13482;48.234;13.006;2023-10-09T03:05:17;3.70;;;1.90;;
25615;SDS011;13482;48.234;13.006;2023-10-09T03:07:45;3.30;;;1.77;;
25615;SDS011;13482;48.234;13.006;2023-10-09T03:10:12;3.00;;;1.70;;
25615;SDS011;13482;48.234;13.006;2023-10-09T03:12:39;4.20;;;2.17;;
25615;SDS011;13482;48.234;13.006;2023-10-09T03:15:09;4.32;;;2.03;;
25615;SDS011;13482;48.234;13.006;2023-10-09T03:17:38;4.18;;;2.30;;
25615;SDS011;13482;48.234;13.006;2023-10-09T03:20:06;3.50;;;1.98;;
25615;SDS011;13482;48.234;13.006;2023-10-09T03:22:43;2.47;;;1.50;;
25615;SDS011;13482;48.234;13.006;2023-10-09T03:25:12;4.22;;;2.20;;
25615;SDS011;13482;48.234;13.006;2023-10-09T03:27:41;4.72;;;1.85;;
25615;SDS011;13482;48.234;13.006;2023-10-09T03:30:13;3.67;;;2.13;;
25615;SDS011;13482;48.234;13.006;2023-10-09T03:32:44;4.07;;;2.42;;
25615;SDS011;13482;48.234;13.006;2023-10-09T03:35:18;4.22;;;2.10;;
25615;SDS011;13482;48.234;13.006;2023-10-09T03:37:59;3.47;;;2.10;;
25615;SDS011;13482;48.234;13.006;2023-10-09T03:40:36;3.88;;;2.22;;
25615;SDS011;13482;48.234;13.006;2023-10-09T03:43:14;3.47;;;2.00;;
25615;SDS011;13482;48.234;13.006;2023-10-09T03:45:42;3.55;;;1.80;;
25615;SDS011;13482;48.234;13.006;2023-10-09T03:48:20;4.63;;;1.90;;
25615;SDS011;13482;48.234;13.006;2023-10-09T03:50:59;3.78;;;1.83;;
25615;SDS011;13482;48.234;13.006;2023-10-09T03:53:36;3.30;;;1.83;;
25615;SDS011;13482;48.234;13.006;2023-10-09T03:56:06;3.30;;;2.10;;
25615;SDS011;13482;48.234;13.006;2023-10-09T03:58:42;4.53;;;2.25;;
25615;SDS011;13482;48.234;13.006;2023-10-09T04:01:16;5.70;;;2.50;;
25615;SDS011;13482;48.234;13.006;2023-10-09T04:03:59;3.88;;;2.40;;
25615;SDS011;13482;48.234;13.006;2023-10-09T04:06:27;5.28;;;2.58;;
25615;SDS011;13482;48.234;13.006;2023-10-09T04:09:03;4.90;;;2.35;;
25615;SDS011;13482;48.234;13.006;2023-10-09T04:11:45;4.13;;;2.20;;
25615;SDS011;13482;48.234;13.006;2023-10-09T04:17:16;3.13;;;1.80;;
25615;SDS011;13482;48.234;13.006;2023-10-09T04:19:56;3.83;;;1.75;;
25615;SDS011;13482;48.234;13.006;2023-10-09T04:22:42;4.15;;;2.05;;
25615;SDS011;13482;48.234;13.006;2023-10-09T04:25:29;3.58;;;2.15;;
25615;SDS011;13482;48.234;13.006;2023-10-09T04:28:07;4.72;;;1.90;;
25615;SDS011;13482;48.234;13.006;2023-10-09T04:30:40;4.18;;;2.33;;
25615;SDS011;13482;48.234;13.006;2023-10-09T04:33:35;4.20;;;1.95;;
25615;SDS011;13482;48.234;13.006;2023-10-09T04:36:09;5.75;;;2.17;;
25615;SDS011;13482;48.234;13.006;2023-10-09T04:38:53;4.78;;;2.38;;
25615;SDS011;13482;48.234;13.006;2023-10-09T04:41:30;3.95;;;2.20;;
25615;SDS011;13482;48.234;13.006;2023-10-09T04:44:19;5.20;;;2.50;;
25615;SDS011;13482;48.234;13.006;2023-10-09T04:46:56;5.13;;;2.67;;
25615;SDS011;13482;48.234;13.006;2023-10-09T04:49:40;4.80;;;2.70;;
25615;SDS011;13482;48.234;13.006;2023-10-09T04:52:19;4.97;;;2.80;;
25615;SDS011;13482;48.234;13.006;2023-10-09T04:54:57;4.88;;;2.55;;
25615;SDS011;13482;48.234;13.006;2023-10-09T04:57:38;6.22;;;3.00;;
25615;SDS011;13482;48.234;13.006;2023-10-09T05:05:29;4.28;;;2.08;;
25615;SDS011;13482;48.234;13.006;2023-10-09T05:08:13;4.53;;;2.10;;
25615;SDS011;13482;48.234;13.006;2023-10-09T05:10:56;5.18;;;2.80;;
25615;SDS011;13482;48.234;13.006;2023-10-09T05:13:33;4.93;;;2.58;;
25615;SDS011;13482;48.234;13.006;2023-10-09T05:16:09;5.73;;;2.87;;
25615;SDS011;13482;48.234;13.006;2023-10-09T05:18:46;5.35;;;2.95;;
25615;SDS011;13482;48.234;13.006;2023-10-09T05:21:33;5.57;;;2.58;;
25615;SDS011;13482;48.234;13.006;2023-10-09T05:24:11;5.63;;;3.50;;
25615;SDS011;13482;48.234;13.006;2023-10-09T05:26:42;6.88;;;3.08;;
25615;SDS011;13482;48.234;13.006;2023-10-09T05:29:15;6.63;;;3.28;;
25615;SDS011;13482;48.234;13.006;2023-10-09T05:32:00;4.97;;;2.60;;
25615;SDS011;13482;48.234;13.006;2023-10-09T05:34:31;5.00;;;2.65;;
25615;SDS011;13482;48.234;13.006;2023-10-09T05:37:02;7.80;;;2.90;;
25615;SDS011;13482;48.234;13.006;2023-10-09T05:39:49;9.18;;;3.53;;
25615;SDS011;13482;48.234;13.006;2023-10-09T05:42:30;6.95;;;3.13;;
25615;SDS011;13482;48.234;13.006;2023-10-09T05:45:09;5.93;;;3.33;;
25615;SDS011;13482;48.234;13.006;2023-10-09T05:47:52;4.45;;;2.97;;
25615;SDS011;13482;48.234;13.006;2023-10-09T05:50:23;5.72;;;2.90;;
25615;SDS011;13482;48.234;13.006;2023-10-09T05:52:53;7.20;;;2.67;;
25615;SDS011;13482;48.234;13.006;2023-10-09T05:55:56;5.90;;;2.70;;
25615;SDS011;13482;48.234;13.006;2023-10-09T05:58:42;3.20;;;1.92;;
25615;SDS011;13482;48.234;13.006;2023-10-09T06:01:29;4.20;;;2.03;;
25615;SDS011;13482;48.234;13.006;2023-10-09T06:04:12;3.72;;;1.95;;
25615;SDS011;13482;48.234;13.006;2023-10-09T06:06:45;3.72;;;2.30;;
25615;SDS011;13482;48.234;13.006;2023-10-09T06:09:22;2.53;;;1.60;;
25615;SDS011;13482;48.234;13.006;2023-10-09T06:12:15;3.15;;;1.80;;
25615;SDS011;13482;48.234;13.006;2023-10-09T06:14:58;4.22;;;2.25;;
25615;SDS011;13482;48.234;13.006;2023-10-09T06:17:46;3.13;;;1.50;;
25615;SDS011;13482;48.234;13.006;2023-10-09T06:20:17;2.80;;;1.90;;
25615;SDS011;13482;48.234;13.006;2023-10-09T06:23:03;4.47;;;1.77;;
25615;SDS011;13482;48.234;13.006;2023-10-09T06:25:43;3.30;;;1.98;;
25615;SDS011;13482;48.234;13.006;2023-10-09T06:28:18;4.93;;;1.90;;
25615;SDS011;13482;48.234;13.006;2023-10-09T06:30:59;3.13;;;1.88;;
25615;SDS011;13482;48.234;13.006;2023-10-09T06:33:50;2.70;;;1.48;;
25615;SDS011;13482;48.234;13.006;2023-10-09T06:36:34;4.15;;;1.60;;
25615;SDS011;13482;48.234;13.006;2023-10-09T06:39:02;3.15;;;1.88;;
25615;SDS011;13482;48.234;13.006;2023-10-09T06:41:56;3.22;;;1.95;;
25615;SDS011;13482;48.234;13.006;2023-10-09T06:44:36;3.75;;;1.98;;
25615;SDS011;13482;48.234;13.006;2023-10-09T06:47:19;2.80;;;1.70;;
25615;SDS011;13482;48.234;13.006;2023-10-09T06:49:50;3.40;;;2.03;;
25615;SDS011;13482;48.234;13.006;2023-10-09T06:52:37;5.15;;;3.47;;
25615;SDS011;13482;48.234;13.006;2023-10-09T06:55:24;5.38;;;2.85;;
25615;SDS011;13482;48.234;13.006;2023-10-09T06:58:04;9.88;;;6.20;;
25615;SDS011;13482;48.234;13.006;2023-10-09T07:00:42;10.15;;;5.97;;
25615;SDS011;13482;48.234;13.006;2023-10-09T07:03:38;15.70;;;10.70;;
25615;SDS011;13482;48.234;13.006;2023-10-09T07:06:27;10.20;;;7.15;;
25615;SDS011;13482;48.234;13.006;2023-10-09T07:09:03;7.70;;;5.47;;
25615;SDS011;13482;48.234;13.006;2023-10-09T07:11:35;7.05;;;4.20;;
25615;SDS011;13482;48.234;13.006;2023-10-09T07:22:20;5.25;;;2.53;;
25615;SDS011;13482;48.234;13.006;2023-10-09T07:24:49;3.75;;;2.50;;
25615;SDS011;13482;48.234;13.006;2023-10-09T07:27:26;4.53;;;2.42;;
25615;SDS011;13482;48.234;13.006;2023-10-09T07:30:13;4.75;;;2.75;;
25615;SDS011;13482;48.234;13.006;2023-10-09T07:32:58;4.90;;;2.42;;
25615;SDS011;13482;48.234;13.006;2023-10-09T07:35:39;4.47;;;2.45;;
25615;SDS011;13482;48.234;13.006;2023-10-09T07:40:41;5.57;;;2.72;;
25615;SDS011;13482;48.234;13.006;2023-10-09T07:43:28;4.45;;;2.55;;
25615;SDS011;13482;48.234;13.006;2023-10-09T07:46:27;5.25;;;2.80;;
25615;SDS011;13482;48.234;13.006;2023-10-09T07:49:01;4.10;;;2.67;;
25615;SDS011;13482;48.234;13.006;2023-10-09T07:51:36;5.32;;;2.80;;
25615;SDS011;13482;48.234;13.006;2023-10-09T07:54:11;6.78;;;2.53;;
25615;SDS011;13482;48.234;13.006;2023-10-09T07:56:42;5.07;;;2.67;;
25615;SDS011;13482;48.234;13.006;2023-10-09T07:59:12;4.18;;;2.47;;
25615;SDS011;13482;48.234;13.006;2023-10-09T08:01:48;6.43;;;2.58;;
25615;SDS011;13482;48.234;13.006;2023-10-09T08:04:22;6.68;;;2.90;;
25615;SDS011;13482;48.234;13.006;2023-10-09T08:07:05;5.10;;;2.30;;
25615;SDS011;13482;48.234;13.006;2023-10-09T08:10:07;5.38;;;2.80;;
25615;SDS011;13482;48.234;13.006;2023-10-09T08:12:44;4.70;;;2.55;;
25615;SDS011;13482;48.234;13.006;2023-10-09T08:20:36;4.40;;;1.77;;
25615;SDS011;13482;48.234;13.006;2023-10-09T08:23:23;5.82;;;2.38;;
25615;SDS011;13482;48.234;13.006;2023-10-09T08:26:03;5.50;;;2.38;;
25615;SDS011;13482;48.234;13.006;2023-10-09T08:28:41;5.18;;;2.40;;
25615;SDS011;13482;48.234;13.006;2023-10-09T08:31:16;5.72;;;2.50;;
25615;SDS011;13482;48.234;13.006;2023-10-09T08:34:07;4.93;;;2.40;;
25615;SDS011;13482;48.234;13.006;2023-10-09T08:36:39;7.70;;;2.90;;
25615;SDS011;13482;48.234;13.006;2023-10-09T08:39:09;4.00;;;2.10;;
25615;SDS011;13482;48.234;13.006;2023-10-09T08:41:52;7.03;;;2.58;;
25615;SDS011;13482;48.234;13.006;2023-10-09T08:44:25;4.93;;;1.88;;
25615;SDS011;13482;48.234;13.006;2023-10-09T08:47:00;4.85;;;2.25;;
25615;SDS011;13482;48.234;13.006;2023-10-09T08:49:28;6.75;;;2.20;;
25615;SDS011;13482;48.234;13.006;2023-10-09T08:52:00;5.47;;;2.30;;
25615;SDS011;13482;48.234;13.006;2023-10-09T08:54:29;4.53;;;2.25;;
25615;SDS011;13482;48.234;13.006;2023-10-09T08:57:00;6.82;;;2.72;;
25615;SDS011;13482;48.234;13.006;2023-10-09T08:59:28;6.80;;;2.50;;
25615;SDS011;13482;48.234;13.006;2023-10-09T09:01:56;5.90;;;2.10;;
25615;SDS011;13482;48.234;13.006;2023-10-09T09:04:36;4.60;;;2.05;;
25615;SDS011;13482;48.234;13.006;2023-10-09T09:07:21;6.43;;;2.20;;
25615;SDS011;13482;48.234;13.006;2023-10-09T09:09:55;5.63;;;2.28;;
25615;SDS011;13482;48.234;13.006;2023-10-09T09:12:48;4.38;;;1.90;;
25615;SDS011;13482;48.234;13.006;2023-10-09T09:15:28;5.35;;;1.73;;
25615;SDS011;13482;48.234;13.006;2023-10-09T09:18:06;7.78;;;2.17;;
25615;SDS011;13482;48.234;13.006;2023-10-09T09:20:44;6.38;;;2.13;;
25615;SDS011;13482;48.234;13.006;2023-10-09T09:23:20;6.07;;;2.20;;
25615;SDS011;13482;48.234;13.006;2023-10-09T09:25:50;5.78;;;2.00;;
25615;SDS011;13482;48.234;13.006;2023-10-09T09:28:30;5.88;;;2.03;;
25615;SDS011;13482;48.234;13.006;2023-10-09T09:31:07;8.13;;;2.33;;
25615;SDS011;13482;48.234;13.006;2023-10-09T09:33:55;7.00;;;2.25;;
25615;SDS011;13482;48.234;13.006;2023-10-09T09:36:33;9.20;;;2.67;;
25615;SDS011;13482;48.234;13.006;2023-10-09T09:39:01;9.23;;;2.50;;
25615;SDS011;13482;48.234;13.006;2023-10-09T09:41:31;7.78;;;2.50;;
25615;SDS011;13482;48.234;13.006;2023-10-09T09:44:01;4.28;;;1.88;;
25615;SDS011;13482;48.234;13.006;2023-10-09T09:46:31;5.38;;;1.80;;
25615;SDS011;13482;48.234;13.006;2023-10-09T09:49:02;6.38;;;2.08;;
25615;SDS011;13482;48.234;13.006;2023-10-09T09:51:44;7.05;;;2.00;;
25615;SDS011;13482;48.234;13.006;2023-10-09T09:54:14;7.28;;;1.85;;
25615;SDS011;13482;48.234;13.006;2023-10-09T09:56:53;6.88;;;2.15;;
25615;SDS011;13482;48.234;13.006;2023-10-09T09:59:24;7.63;;;2.58;;
25615;SDS011;13482;48.234;13.006;2023-10-09T10:01:56;7.32;;;2.30;;
25615;SDS011;13482;48.234;13.006;2023-10-09T10:04:34;5.40;;;1.80;;
25615;SDS011;13482;48.234;13.006;2023-10-09T10:07:07;5.80;;;2.20;;
25615;SDS011;13482;48.234;13.006;2023-10-09T10:12:08;6.50;;;1.98;;
25615;SDS011;13482;48.234;13.006;2023-10-09T10:14:56;5.43;;;2.30;;
25615;SDS011;13482;48.234;13.006;2023-10-09T10:17:26;6.15;;;1.90;;
25615;SDS011;13482;48.234;13.006;2023-10-09T10:22:41;7.82;;;2.15;;
25615;SDS011;13482;48.234;13.006;2023-10-09T10:28:18;6.32;;;1.88;;
25615;SDS011;13482;48.234;13.006;2023-10-09T10:31:09;6.65;;;1.80;;
25615;SDS011;13482;48.234;13.006;2023-10-09T10:36:22;7.88;;;2.42;;
25615;SDS011;13482;48.234;13.006;2023-10-09T10:39:06;8.73;;;2.08;;
25615;SDS011;13482;48.234;13.006;2023-10-09T10:41:57;5.10;;;1.90;;
25615;SDS011;13482;48.234;13.006;2023-10-09T10:44:32;5.70;;;1.80;;
25615;SDS011;13482;48.234;13.006;2023-10-09T10:49:52;6.07;;;1.88;;
25615;SDS011;13482;48.234;13.006;2023-10-09T10:52:47;5.13;;;1.80;;
25615;SDS011;13482;48.234;13.006;2023-10-09T10:55:24;5.35;;;1.60;;
25615;SDS011;13482;48.234;13.006;2023-10-09T10:57:57;4.35;;;1.80;;
25615;SDS011;13482;48.234;13.006;2023-10-09T11:00:37;5.18;;;1.73;;
25615;SDS011;13482;48.234;13.006;2023-10-09T11:03:23;5.25;;;1.65;;
25615;SDS011;13482;48.234;13.006;2023-10-09T11:06:11;7.28;;;2.33;;
25615;SDS011;13482;48.234;13.006;2023-10-09T11:08:49;5.85;;;2.40;;
25615;SDS011;13482;48.234;13.006;2023-10-09T11:11:25;5.57;;;1.83;;
25615;SDS011;13482;48.234;13.006;2023-10-09T11:14:11;6.07;;;2.00;;
25615;SDS011;13482;48.234;13.006;2023-10-09T11:16:44;6.03;;;2.10;;
25615;SDS011;13482;48.234;13.006;2023-10-09T11:19:18;6.78;;;2.13;;
25615;SDS011;13482;48.234;13.006;2023-10-09T11:22:06;8.10;;;2.30;;
25615;SDS011;13482;48.234;13.006;2023-10-09T11:24:34;6.00;;;1.88;;
25615;SDS011;13482;48.234;13.006;2023-10-09T11:27:02;7.80;;;2.00;;
25615;SDS011;13482;48.234;13.006;2023-10-09T11:29:34;4.35;;;1.60;;
25615;SDS011;13482;48.234;13.006;2023-10-09T11:32:09;6.90;;;2.42;;
25615;SDS011;13482;48.234;13.006;2023-10-09T11:34:50;6.43;;;1.90;;
25615;SDS011;13482;48.234;13.006;2023-10-09T11:37:37;5.38;;;1.67;;
25615;SDS011;13482;48.234;13.006;2023-10-09T11:40:31;5.80;;;1.98;;
25615;SDS011;13482;48.234;13.006;2023-10-09T11:43:20;7.65;;;2.30;;
25615;SDS011;13482;48.234;13.006;2023-10-09T11:46:11;8.30;;;2.58;;
25615;SDS011;13482;48.234;13.006;2023-10-09T11:51:33;7.18;;;2.00;;
25615;SDS011;13482;48.234;13.006;2023-10-09T11:54:04;5.45;;;1.98;;
25615;SDS011;13482;48.234;13.006;2023-10-09T11:56:35;4.97;;;2.00;;
25615;SDS011;13482;48.234;13.006;2023-10-09T11:59:02;8.18;;;2.30;;
25615;SDS011;13482;48.234;13.006;2023-10-09T12:01:32;5.05;;;1.80;;
25615;SDS011;13482;48.234;13.006;2023-10-09T12:04:04;5.72;;;2.00;;
25615;SDS011;13482;48.234;13.006;2023-10-09T12:06:36;6.88;;;2.20;;
25615;SDS011;13482;48.234;13.006;2023-10-09T12:09:03;6.38;;;2.25;;
25615;SDS011;13482;48.234;13.006;2023-10-09T12:11:32;6.35;;;1.95;;
25615;SDS011;13482;48.234;13.006;2023-10-09T12:13:59;5.93;;;2.33;;
25615;SDS011;13482;48.234;13.006;2023-10-09T12:16:27;7.20;;;1.95;;
25615;SDS011;13482;48.234;13.006;2023-10-09T12:18:56;7.35;;;2.08;;
25615;SDS011;13482;48.234;13.006;2023-10-09T12:21:25;5.43;;;2.05;;
25615;SDS011;13482;48.234;13.006;2023-10-09T12:23:55;5.05;;;1.73;;
25615;SDS011;13482;48.234;13.006;2023-10-09T12:26:39;5.82;;;2.05;;
25615;SDS011;13482;48.234;13.006;2023-10-09T12:29:09;7.72;;;2.00;;
25615;SDS011;13482;48.234;13.006;2023-10-09T12:31:38;6.43;;;2.25;;
25615;SDS011;13482;48.234;13.006;2023-10-09T12:34:05;10.30;;;2.58;;
25615;SDS011;13482;48.234;13.006;2023-10-09T12:36:34;9.88;;;2.63;;
25615;SDS011;13482;48.234;13.006;2023-10-09T12:39:04;4.82;;;1.92;;
25615;SDS011;13482;48.234;13.006;2023-10-09T12:41:32;6.13;;;2.35;;
25615;SDS011;13482;48.234;13.006;2023-10-09T12:44:01;7.15;;;1.98;;
25615;SDS011;13482;48.234;13.006;2023-10-09T12:46:30;4.43;;;1.70;;
25615;SDS011;13482;48.234;13.006;2023-10-09T12:49:05;5.32;;;1.83;;
25615;SDS011;13482;48.234;13.006;2023-10-09T12:51:32;7.30;;;2.60;;
25615;SDS011;13482;48.234;13.006;2023-10-09T12:54:00;5.63;;;1.80;;
25615;SDS011;13482;48.234;13.006;2023-10-09T12:56:30;6.15;;;2.13;;
25615;SDS011;13482;48.234;13.006;2023-10-09T12:59:05;6.57;;;2.03;;
25615;SDS011;13482;48.234;13.006;2023-10-09T13:01:34;6.47;;;2.03;;
25615;SDS011;13482;48.234;13.006;2023-10-09T13:04:10;6.20;;;1.90;;
25615;SDS011;13482;48.234;13.006;2023-10-09T13:06:42;8.27;;;2.50;;
25615;SDS011;13482;48.234;13.006;2023-10-09T13:09:13;7.13;;;2.20;;
25615;SDS011;13482;48.234;13.006;2023-10-09T13:11:44;11.52;;;2.38;;
25615;SDS011;13482;48.234;13.006;2023-10-09T13:14:16;9.23;;;2.05;;
25615;SDS011;13482;48.234;13.006;2023-10-09T13:16:48;7.53;;;1.85;;
25615;SDS011;13482;48.234;13.006;2023-10-09T13:19:17;8.45;;;2.40;;
25615;SDS011;13482;48.234;13.006;2023-10-09T13:21:44;7.00;;;2.10;;
25615;SDS011;13482;48.234;13.006;2023-10-09T13:24:12;4.60;;;1.55;;
25615;SDS011;13482;48.234;13.006;2023-10-09T13:26:43;8.55;;;2.60;;
25615;SDS011;13482;48.234;13.006;2023-10-09T13:29:13;8.20;;;2.00;;
25615;SDS011;13482;48.234;13.006;2023-10-09T13:31:49;7.40;;;1.90;;
25615;SDS011;13482;48.234;13.006;2023-10-09T13:34:24;6.03;;;2.05;;
25615;SDS011;13482;48.234;13.006;2023-10-09T13:36:55;6.90;;;2.10;;
25615;SDS011;13482;48.234;13.006;2023-10-09T13:39:26;5.43;;;1.80;;
25615;SDS011;13482;48.234;13.006;2023-10-09T13:41:54;9.38;;;1.92;;
25615;SDS011;13482;48.234;13.006;2023-10-09T13:44:28;7.53;;;1.63;;
25615;SDS011;13482;48.234;13.006;2023-10-09T13:46:57;7.60;;;1.75;;
25615;SDS011;13482;48.234;13.006;2023-10-09T13:49:36;7.88;;;1.80;;
25615;SDS011;13482;48.234;13.006;2023-10-09T13:52:09;8.30;;;1.70;;
25615;SDS011;13482;48.234;13.006;2023-10-09T13:54:37;10.45;;;2.47;;
25615;SDS011;13482;48.234;13.006;2023-10-09T13:57:05;6.07;;;1.83;;
25615;SDS011;13482;48.234;13.006;2023-10-09T13:59:34;8.43;;;2.35;;
25615;SDS011;13482;48.234;13.006;2023-10-09T14:02:03;7.82;;;1.83;;
25615;SDS011;13482;48.234;13.006;2023-10-09T14:04:36;8.20;;;2.20;;
25615;SDS011;13482;48.234;13.006;2023-10-09T14:07:05;6.13;;;2.10;;
25615;SDS011;13482;48.234;13.006;2023-10-09T14:09:33;7.35;;;2.33;;
25615;SDS011;13482;48.234;13.006;2023-10-09T14:12:21;10.43;;;2.20;;
25615;SDS011;13482;48.234;13.006;2023-10-09T14:14:50;6.90;;;1.83;;
25615;SDS011;13482;48.234;13.006;2023-10-09T14:17:21;9.07;;;1.85;;
25615;SDS011;13482;48.234;13.006;2023-10-09T14:22:22;6.35;;;2.10;;
25615;SDS011;13482;48.234;13.006;2023-10-09T14:24:51;7.05;;;2.03;;
25615;SDS011;13482;48.234;13.006;2023-10-09T14:27:24;9.07;;;2.20;;
25615;SDS011;13482;48.234;13.006;2023-10-09T14:29:56;5.75;;;1.90;;
25615;SDS011;13482;48.234;13.006;2023-10-09T14:32:27;5.67;;;2.00;;
25615;SDS011;13482;48.234;13.006;2023-10-09T14:34:56;5.80;;;1.88;;
25615;SDS011;13482;48.234;13.006;2023-10-09T14:37:28;6.80;;;1.77;;
25615;SDS011;13482;48.234;13.006;2023-10-09T14:39:56;8.65;;;2.00;;
25615;SDS011;13482;48.234;13.006;2023-10-09T14:42:25;6.70;;;1.73;;
25615;SDS011;13482;48.234;13.006;2023-10-09T14:44:54;4.68;;;1.67;;
25615;SDS011;13482;48.234;13.006;2023-10-09T14:47:22;6.68;;;2.13;;
25615;SDS011;13482;48.234;13.006;2023-10-09T14:49:50;6.07;;;1.90;;
25615;SDS011;13482;48.234;13.006;2023-10-09T14:52:20;7.97;;;2.00;;
25615;SDS011;13482;48.234;13.006;2023-10-09T14:54:50;4.80;;;1.80;;
25615;SDS011;13482;48.234;13.006;2023-10-09T14:57:18;6.50;;;2.33;;
25615;SDS011;13482;48.234;13.006;2023-10-09T14:59:45;6.15;;;1.90;;
25615;SDS011;13482;48.234;13.006;2023-10-09T15:02:13;6.10;;;1.95;;
25615;SDS011;13482;48.234;13.006;2023-10-09T15:04:41;5.35;;;1.77;;
25615;SDS011;13482;48.234;13.006;2023-10-09T15:07:08;8.60;;;1.52;;
25615;SDS011;13482;48.234;13.006;2023-10-09T15:09:43;9.00;;;2.40;;
25615;SDS011;13482;48.234;13.006;2023-10-09T15:12:11;6.53;;;2.10;;
25615;SDS011;13482;48.234;13.006;2023-10-09T15:14:38;10.38;;;4.75;;
25615;SDS011;13482;48.234;13.006;2023-10-09T15:17:05;33.67;;;21.73;;
25615;SDS011;13482;48.234;13.006;2023-10-09T15:19:33;52.83;;;35.95;;
25615;SDS011;13482;48.234;13.006;2023-10-09T15:22:01;32.88;;;19.92;;
25615;SDS011;13482;48.234;13.006;2023-10-09T15:24:34;16.58;;;10.20;;
25615;SDS011;13482;48.234;13.006;2023-10-09T15:27:03;14.40;;;7.53;;
25615;SDS011;13482;48.234;13.006;2023-10-09T15:29:32;10.95;;;5.10;;
25615;SDS011;13482;48.234;13.006;2023-10-09T15:32:01;9.50;;;4.28;;
25615;SDS011;13482;48.234;13.006;2023-10-09T15:34:34;7.40;;;2.88;;
25615;SDS011;13482;48.234;13.006;2023-10-09T15:37:02;7.80;;;2.88;;
25615;SDS011;13482;48.234;13.006;2023-10-09T15:39:36;8.25;;;2.80;;
25615;SDS011;13482;48.234;13.006;2023-10-09T15:42:03;5.82;;;2.17;;
25615;SDS011;13482;48.234;13.006;2023-10-09T15:44:33;8.45;;;2.53;;
25615;SDS011;13482;48.234;13.006;2023-10-09T15:47:04;7.95;;;2.45;;
25615;SDS011;13482;48.234;13.006;2023-10-09T15:49:35;7.65;;;2.28;;
25615;SDS011;13482;48.234;13.006;2023-10-09T15:52:08;7.15;;;2.05;;
25615;SDS011;13482;48.234;13.006;2023-10-09T15:54:35;5.47;;;1.95;;
25615;SDS011;13482;48.234;13.006;2023-10-09T15:57:03;7.10;;;2.10;;
25615;SDS011;13482;48.234;13.006;2023-10-09T15:59:38;9.75;;;2.45;;
25615;SDS011;13482;48.234;13.006;2023-10-09T16:02:06;5.97;;;2.10;;
25615;SDS011;13482;48.234;13.006;2023-10-09T16:04:34;8.00;;;2.17;;
25615;SDS011;13482;48.234;13.006;2023-10-09T16:07:01;5.60;;;2.30;;